createdAt,value
2018-03-14T00:01:07.986Z,99.90
2018-03-14T00:03:36.213Z,99.90
2018-03-14T00:06:03.808Z,99.90
2018-03-14T00:08:31.277Z,99.90
2018-03-14T00:10:58.741Z,99.90
2018-03-14T00:13:26.237Z,99.90
2018-03-14T00:15:55.213Z,99.90
2018-03-14T00:18:25.326Z,99.90
2018-03-14T00:20:56.909Z,99.90
2018-03-14T00:23:24.368Z,99.90
2018-03-14T00:25:51.861Z,99.90
2018-03-14T00:28:19.321Z,99.90
2018-03-14T00:30:46.788Z,99.90
2018-03-14T00:33:14.674Z,99.90
2018-03-14T00:35:53.948Z,99.90
2018-03-14T00:38:21.416Z,99.90
2018-03-14T00:40:48.964Z,99.90
2018-03-14T00:43:18.078Z,99.90
2018-03-14T00:45:46.404Z,99.90
2018-03-14T00:48:14.136Z,99.90
2018-03-14T00:50:42.344Z,99.90
2018-03-14T00:53:10.621Z,99.90
2018-03-14T00:55:38.536Z,99.90
2018-03-14T00:58:06.130Z,99.90
2018-03-14T01:00:33.817Z,99.90
2018-03-14T01:03:02.238Z,99.90
2018-03-14T01:05:30.385Z,99.90
2018-03-14T01:07:57.868Z,99.90
2018-03-14T01:10:25.785Z,99.90
2018-03-14T01:12:54.218Z,99.90
2018-03-14T01:15:22.382Z,99.90
2018-03-14T01:17:51.300Z,99.90
2018-03-14T01:20:20.682Z,99.90
2018-03-14T01:22:48.149Z,99.90
2018-03-14T01:25:15.631Z,99.90
2018-03-14T01:27:43.089Z,99.90
2018-03-14T01:30:10.584Z,99.90
2018-03-14T01:32:38.061Z,99.90
2018-03-14T01:35:06.296Z,99.90
2018-03-14T01:37:33.792Z,99.90
2018-03-14T01:40:01.547Z,99.90
2018-03-14T01:42:29.081Z,99.90
2018-03-14T01:44:56.589Z,99.90
2018-03-14T01:47:24.044Z,99.90
2018-03-14T01:49:51.537Z,99.90
2018-03-14T01:52:20.020Z,99.90
2018-03-14T01:54:48.810Z,99.90
2018-03-14T01:57:16.313Z,99.90
2018-03-14T01:59:43.793Z,99.90
2018-03-14T02:02:11.806Z,99.90
2018-03-14T02:04:40.798Z,99.90
2018-03-14T02:07:08.288Z,99.90
2018-03-14T02:09:36.073Z,99.90
2018-03-14T02:12:04.453Z,99.90
2018-03-14T02:14:31.911Z,99.90
2018-03-14T02:16:59.405Z,99.90
2018-03-14T02:19:26.973Z,99.90
2018-03-14T02:21:54.428Z,99.90
2018-03-14T02:24:22.653Z,99.90
2018-03-14T02:26:50.153Z,99.90
2018-03-14T02:29:19.102Z,99.90
2018-03-14T02:31:47.019Z,99.90
2018-03-14T02:34:16.062Z,99.90
2018-03-14T02:36:55.439Z,99.90
2018-03-14T02:39:22.905Z,99.90
2018-03-14T02:41:50.377Z,99.90
2018-03-14T02:44:18.952Z,99.90
2018-03-14T02:46:46.467Z,99.90
2018-03-14T02:49:14.333Z,99.90
2018-03-14T02:51:41.820Z,99.90
2018-03-14T02:54:09.329Z,99.90
2018-03-14T02:56:36.804Z,99.90
2018-03-14T02:59:05.401Z,99.90
2018-03-14T03:01:34.178Z,99.90
2018-03-14T03:04:02.149Z,99.90
2018-03-14T03:06:29.612Z,99.90
2018-03-14T03:08:57.134Z,99.90
2018-03-14T03:11:26.250Z,99.90
2018-03-14T03:13:54.438Z,99.90
2018-03-14T03:16:22.804Z,99.90
2018-03-14T03:18:50.296Z,99.90
2018-03-14T03:21:17.762Z,99.90
2018-03-14T03:23:46.754Z,99.90
2018-03-14T03:26:14.938Z,99.90
2018-03-14T03:28:44.065Z,99.90
2018-03-14T03:31:13.225Z,99.90
2018-03-14T03:33:41.511Z,99.90
2018-03-14T03:36:09.637Z,99.90
2018-03-14T03:38:38.761Z,99.90
2018-03-14T03:41:06.550Z,99.90
2018-03-14T03:43:34.044Z,99.90
2018-03-14T03:46:02.416Z,99.90
2018-03-14T03:48:29.873Z,99.90
2018-03-14T03:50:59.824Z,99.90
2018-03-14T03:53:27.918Z,99.90
2018-03-14T03:55:58.650Z,99.90
2018-03-14T03:58:27.100Z,99.90
2018-03-14T04:00:55.362Z,99.90
2018-03-14T04:03:22.823Z,99.90
2018-03-14T04:05:50.285Z,99.90
2018-03-14T04:08:19.732Z,99.90
2018-03-14T04:10:47.561Z,99.90
2018-03-14T04:13:15.051Z,99.90
2018-03-14T04:15:43.474Z,99.90
2018-03-14T04:18:11.026Z,99.90
2018-03-14T04:20:38.483Z,99.90
2018-03-14T04:23:06.144Z,99.90
2018-03-14T04:25:33.628Z,99.90
2018-03-14T04:28:01.177Z,99.90
2018-03-14T04:30:29.182Z,99.90
2018-03-14T04:32:56.653Z,99.90
2018-03-14T04:35:25.820Z,99.90
2018-03-14T04:37:54.042Z,99.90
2018-03-14T04:40:21.541Z,99.90
2018-03-14T04:42:49.597Z,99.90
2018-03-14T04:45:17.106Z,99.90
2018-03-14T04:47:44.577Z,99.90
2018-03-14T04:50:12.022Z,99.90
2018-03-14T04:52:40.352Z,99.90
2018-03-14T04:55:09.632Z,99.90
2018-03-14T04:57:37.109Z,99.90
2018-03-14T05:00:06.166Z,99.90
2018-03-14T05:05:08.432Z,99.90
2018-03-14T05:07:36.666Z,99.90
2018-03-14T05:10:08.690Z,99.90
2018-03-14T05:12:36.187Z,99.90
2018-03-14T05:15:03.668Z,99.90
2018-03-14T05:17:31.113Z,99.90
2018-03-14T05:19:58.663Z,99.90
2018-03-14T05:22:26.108Z,99.90
2018-03-14T05:24:57.804Z,99.90
2018-03-14T05:27:25.258Z,99.90
2018-03-14T05:29:52.745Z,99.90
2018-03-14T05:32:21.184Z,99.90
2018-03-14T05:34:49.405Z,99.90
2018-03-14T05:37:16.868Z,99.90
2018-03-14T05:39:44.346Z,99.90
2018-03-14T05:42:11.839Z,99.90
2018-03-14T05:44:39.284Z,99.90
2018-03-14T05:47:06.780Z,99.90
2018-03-14T05:49:34.238Z,99.90
2018-03-14T05:52:01.746Z,99.90
2018-03-14T05:54:29.221Z,99.90
2018-03-14T05:57:01.489Z,99.90
2018-03-14T05:59:28.962Z,99.90
2018-03-14T06:01:56.479Z,99.90
2018-03-14T06:04:24.981Z,99.90
2018-03-14T06:06:53.200Z,99.90
2018-03-14T06:09:20.657Z,99.90
2018-03-14T06:11:55.392Z,99.90
2018-03-14T06:14:23.299Z,99.90
2018-03-14T06:16:50.786Z,99.90
2018-03-14T06:19:20.468Z,99.90
2018-03-14T06:21:47.939Z,99.90
2018-03-14T06:24:15.383Z,99.90
2018-03-14T06:26:46.480Z,99.90
2018-03-14T06:29:14.300Z,99.90
2018-03-14T06:31:42.981Z,99.90
2018-03-14T06:34:10.480Z,99.90
2018-03-14T06:36:38.845Z,99.90
2018-03-14T06:39:06.320Z,99.90
2018-03-14T06:41:37.325Z,99.90
2018-03-14T06:44:04.781Z,99.90
2018-03-14T06:46:32.236Z,99.90
2018-03-14T06:48:59.745Z,99.90
2018-03-14T06:51:27.292Z,99.90
2018-03-14T06:53:54.753Z,99.90
2018-03-14T06:56:26.196Z,99.90
2018-03-14T06:59:05.480Z,99.90
2018-03-14T07:01:45.519Z,99.90
2018-03-14T07:04:24.861Z,99.90
2018-03-14T07:06:52.340Z,99.90
2018-03-14T07:09:22.018Z,99.90
2018-03-14T07:11:49.474Z,99.90
2018-03-14T07:14:16.979Z,99.90
2018-03-14T07:16:44.425Z,99.90
2018-03-14T07:19:11.901Z,99.90
2018-03-14T07:21:39.355Z,99.90
2018-03-14T07:24:07.659Z,99.90
2018-03-14T07:26:36.574Z,99.90
2018-03-14T07:29:04.856Z,99.90
2018-03-14T07:31:32.391Z,99.90
2018-03-14T07:34:02.257Z,99.90
2018-03-14T07:36:29.709Z,99.90
2018-03-14T07:38:58.901Z,99.90
2018-03-14T07:41:27.071Z,99.90
2018-03-14T07:43:56.219Z,99.90
2018-03-14T07:46:23.689Z,99.90
2018-03-14T07:48:52.014Z,99.90
2018-03-14T07:51:23.902Z,99.90
2018-03-14T07:53:52.241Z,99.90
2018-03-14T07:56:19.697Z,99.90
2018-03-14T07:58:47.973Z,99.90
2018-03-14T08:01:15.488Z,99.90
2018-03-14T08:03:43.721Z,99.90
2018-03-14T08:06:13.036Z,99.90
2018-03-14T08:08:40.502Z,99.90
2018-03-14T08:11:07.974Z,99.90
2018-03-14T08:13:42.582Z,99.90
2018-03-14T08:16:10.778Z,99.90
2018-03-14T08:18:39.924Z,99.90
2018-03-14T08:21:07.365Z,99.90
2018-03-14T08:23:35.297Z,99.90
2018-03-14T08:26:02.816Z,99.90
2018-03-14T08:28:34.933Z,99.90
2018-03-14T08:31:02.461Z,99.90
2018-03-14T08:33:31.626Z,99.90
2018-03-14T08:35:59.913Z,99.90
2018-03-14T08:38:27.395Z,99.90
2018-03-14T08:40:55.311Z,99.90
2018-03-14T08:43:22.769Z,99.90
2018-03-14T08:45:55.573Z,99.90
2018-03-14T08:48:23.549Z,99.90
2018-03-14T08:50:53.262Z,99.90
2018-03-14T08:53:22.289Z,99.90
2018-03-14T08:55:51.421Z,99.90
2018-03-14T08:58:18.877Z,99.90
2018-03-14T09:00:46.350Z,99.90
2018-03-14T09:03:13.961Z,99.90
2018-03-14T09:05:42.873Z,99.90
2018-03-14T09:08:10.936Z,99.90
2018-03-14T09:10:38.418Z,99.90
2018-03-14T09:13:05.902Z,99.90
2018-03-14T09:15:34.110Z,99.90
2018-03-14T09:18:02.353Z,99.90
2018-03-14T09:20:31.516Z,99.90
2018-03-14T09:23:00.065Z,99.90
2018-03-14T09:25:27.597Z,99.90
2018-03-14T09:27:55.045Z,99.90
2018-03-14T09:30:22.546Z,99.90
2018-03-14T09:32:50.816Z,99.90
2018-03-14T09:35:18.908Z,99.90
2018-03-14T09:37:48.382Z,99.90
2018-03-14T09:40:15.857Z,99.90
2018-03-14T09:42:44.373Z,99.90
2018-03-14T09:45:22.892Z,99.90
2018-03-14T09:47:50.972Z,99.90
2018-03-14T09:50:18.469Z,99.90
2018-03-14T09:52:46.181Z,99.90
2018-03-14T09:55:15.236Z,99.90
2018-03-14T09:57:43.483Z,99.90
2018-03-14T10:00:12.021Z,99.90
2018-03-14T10:02:42.016Z,99.90
2018-03-14T10:05:11.413Z,99.90
2018-03-14T10:07:39.759Z,99.90
2018-03-14T10:10:07.946Z,99.90
2018-03-14T10:12:36.913Z,99.90
2018-03-14T10:15:08.169Z,99.90
2018-03-14T10:17:35.653Z,99.90
2018-03-14T10:20:03.211Z,99.90
2018-03-14T10:22:31.050Z,99.90
2018-03-14T10:24:58.496Z,99.90
2018-03-14T10:27:26.062Z,99.90
2018-03-14T10:29:58.861Z,99.90
2018-03-14T10:32:26.330Z,99.90
2018-03-14T10:34:54.949Z,99.90
2018-03-14T10:37:22.569Z,99.90
2018-03-14T10:39:50.065Z,99.90
2018-03-14T10:42:17.515Z,99.90
2018-03-14T10:44:45.006Z,99.90
2018-03-14T10:47:18.119Z,99.90
2018-03-14T10:49:46.898Z,99.90
2018-03-14T10:52:15.785Z,99.90
2018-03-14T10:54:44.120Z,99.90
2018-03-14T10:57:11.605Z,99.90
2018-03-14T10:59:39.338Z,99.90
2018-03-14T11:02:12.334Z,99.90
2018-03-14T11:04:39.852Z,99.90
2018-03-14T11:07:08.236Z,99.90
2018-03-14T11:09:35.893Z,99.90
2018-03-14T11:12:04.301Z,99.90
2018-03-14T11:14:32.574Z,99.90
2018-03-14T11:17:04.483Z,99.90
2018-03-14T11:19:32.685Z,99.90
2018-03-14T11:22:00.226Z,99.90
2018-03-14T11:24:28.428Z,99.90
2018-03-14T11:26:55.905Z,99.90
2018-03-14T11:29:24.344Z,99.90
2018-03-14T11:31:56.458Z,99.90
2018-03-14T11:34:23.861Z,99.90
2018-03-14T11:36:52.591Z,99.90
2018-03-14T11:39:22.598Z,99.90
2018-03-14T11:41:50.048Z,99.90
2018-03-14T11:44:17.524Z,99.90
2018-03-14T11:46:45.381Z,99.90
2018-03-14T11:49:14.147Z,99.90
2018-03-14T11:51:41.712Z,99.90
2018-03-14T11:54:09.229Z,99.90
2018-03-14T11:56:36.742Z,99.90
2018-03-14T11:59:09.789Z,99.90
2018-03-14T12:01:38.016Z,99.90
2018-03-14T12:04:06.230Z,99.90
2018-03-14T12:06:34.864Z,99.90
2018-03-14T12:09:02.441Z,99.90
2018-03-14T12:11:29.951Z,99.90
2018-03-14T12:14:00.098Z,99.90
2018-03-14T12:16:27.578Z,99.90
2018-03-14T12:18:55.134Z,99.90
2018-03-14T12:21:24.286Z,99.90
2018-03-14T12:23:51.741Z,99.90
2018-03-14T12:26:19.269Z,99.90
2018-03-14T12:28:46.706Z,99.90
2018-03-14T12:31:14.194Z,99.90
2018-03-14T12:33:42.473Z,99.90
2018-03-14T12:36:09.927Z,99.90
2018-03-14T12:38:37.453Z,99.90
2018-03-14T12:41:04.954Z,99.90
2018-03-14T12:43:32.421Z,99.90
2018-03-14T12:46:00.572Z,99.90
2018-03-14T12:48:28.103Z,99.90
2018-03-14T12:50:56.488Z,99.90
2018-03-14T12:53:23.946Z,99.90
2018-03-14T12:58:26.577Z,99.90
2018-03-14T13:00:56.252Z,99.90
2018-03-14T13:03:23.686Z,99.90
2018-03-14T13:05:53.475Z,99.90
2018-03-14T13:08:21.869Z,99.90
2018-03-14T13:10:50.097Z,99.30
2018-03-14T13:13:17.685Z,99.30
2018-03-14T13:15:45.906Z,99.90
2018-03-14T13:18:13.337Z,99.90
2018-03-14T13:20:43.141Z,99.90
2018-03-14T13:23:11.552Z,99.90
2018-03-14T13:25:39.065Z,99.90
2018-03-14T13:28:08.006Z,99.90
2018-03-14T13:30:36.418Z,99.90
2018-03-14T13:33:08.545Z,99.90
2018-03-14T13:35:37.520Z,99.90
2018-03-14T13:38:04.995Z,99.90
2018-03-14T13:40:32.509Z,99.90
2018-03-14T13:43:00.643Z,99.90
2018-03-14T13:45:28.894Z,99.90
2018-03-14T13:47:56.398Z,99.90
2018-03-14T13:50:24.949Z,99.90
2018-03-14T13:52:53.170Z,99.90
2018-03-14T13:55:22.065Z,99.90
2018-03-14T13:57:50.269Z,99.90
2018-03-14T14:00:19.944Z,99.90
2018-03-14T14:02:47.950Z,99.90
2018-03-14T14:05:16.518Z,99.90
2018-03-14T14:07:46.629Z,99.90
2018-03-14T14:10:14.333Z,99.90
2018-03-14T14:12:43.373Z,99.90
2018-03-14T14:15:11.751Z,99.90
2018-03-14T14:17:40.778Z,99.90
2018-03-14T14:20:08.226Z,99.90
2018-03-14T14:22:36.504Z,99.90
2018-03-14T14:25:04.032Z,99.90
2018-03-14T14:27:33.749Z,99.90
2018-03-14T14:30:03.797Z,99.90
2018-03-14T14:32:31.971Z,99.90
2018-03-14T14:35:00.271Z,99.90
2018-03-14T14:37:28.379Z,99.90
2018-03-14T14:39:56.601Z,99.90
2018-03-14T14:42:24.986Z,99.90
2018-03-14T14:44:52.534Z,99.90
2018-03-14T14:47:19.995Z,99.90
2018-03-14T14:49:47.862Z,99.90
2018-03-14T14:52:15.322Z,99.90
2018-03-14T14:54:42.847Z,99.90
2018-03-14T14:57:10.313Z,99.90
2018-03-14T14:59:39.305Z,99.90
2018-03-14T15:02:06.846Z,99.00
2018-03-14T15:04:35.883Z,98.70
2018-03-14T15:07:03.523Z,98.70
2018-03-14T15:09:32.685Z,98.30
2018-03-14T15:12:00.909Z,98.20
2018-03-14T15:14:29.081Z,98.20
2018-03-14T15:16:58.149Z,98.80
2018-03-14T15:19:27.170Z,98.50
2018-03-14T15:22:00.978Z,98.50
2018-03-14T15:24:29.741Z,98.00
2018-03-14T15:26:57.942Z,95.10
2018-03-14T15:29:25.679Z,95.10
2018-03-14T15:31:55.495Z,95.10
2018-03-14T15:34:24.847Z,94.80
2018-03-14T15:36:52.845Z,95.30
2018-03-14T15:39:20.322Z,95.30
2018-03-14T15:41:50.158Z,94.80
2018-03-14T15:44:18.637Z,94.70
2018-03-14T15:46:47.549Z,94.60
2018-03-14T15:49:16.614Z,94.90
2018-03-14T15:51:44.155Z,95.20
2018-03-14T15:54:12.410Z,95.40
2018-03-14T15:56:40.770Z,95.40
2018-03-14T15:59:08.482Z,95.20
2018-03-14T16:01:36.850Z,94.90
2018-03-14T16:04:04.321Z,95.40
2018-03-14T16:06:31.773Z,95.40
2018-03-14T16:08:59.284Z,96.40
2018-03-14T16:11:26.741Z,97.10
2018-03-14T16:13:55.325Z,97.20
2018-03-14T16:16:25.237Z,97.70
2018-03-14T16:18:53.561Z,97.50
2018-03-14T16:21:28.905Z,97.70
2018-03-14T16:23:58.833Z,98.00
2018-03-14T16:26:27.861Z,98.80
2018-03-14T16:28:56.691Z,99.10
2018-03-14T16:31:25.564Z,99.20
2018-03-14T16:33:53.038Z,99.10
2018-03-14T16:36:26.864Z,99.00
2018-03-14T16:38:55.662Z,99.70
2018-03-14T16:41:23.278Z,99.90
2018-03-14T16:43:51.125Z,99.90
2018-03-14T16:46:19.443Z,99.90
2018-03-14T16:48:47.475Z,99.90
2018-03-14T16:51:14.930Z,99.90
2018-03-14T16:53:43.414Z,99.90
2018-03-14T16:56:11.343Z,99.90
2018-03-14T16:58:39.441Z,99.90
2018-03-14T17:01:07.156Z,99.90
2018-03-14T17:03:34.617Z,99.90
2018-03-14T17:06:02.605Z,99.90
2018-03-14T17:08:30.100Z,99.90
2018-03-14T17:10:58.045Z,99.90
2018-03-14T17:13:25.505Z,99.90
2018-03-14T17:15:52.992Z,99.90
2018-03-14T17:18:20.422Z,99.90
2018-03-14T17:20:49.401Z,99.90
2018-03-14T17:23:18.916Z,99.90
2018-03-14T17:25:48.267Z,99.90
2018-03-14T17:28:15.722Z,99.90
2018-03-14T17:30:43.283Z,99.90
2018-03-14T17:33:10.792Z,99.90
2018-03-14T17:35:38.247Z,99.90
2018-03-14T17:38:09.500Z,99.90
2018-03-14T17:40:37.077Z,99.90
2018-03-14T17:43:05.315Z,99.90
2018-03-14T17:45:32.782Z,99.90
2018-03-14T17:48:01.189Z,99.90
2018-03-14T17:50:29.486Z,99.90
2018-03-14T17:52:57.830Z,99.90
2018-03-14T17:55:27.020Z,99.90
2018-03-14T17:57:55.082Z,99.90
2018-03-14T18:00:22.743Z,99.90
2018-03-14T18:02:51.994Z,99.90
2018-03-14T18:05:19.518Z,99.90
2018-03-14T18:07:47.029Z,99.90
2018-03-14T18:10:14.487Z,99.90
2018-03-14T18:12:42.001Z,99.90
2018-03-14T18:15:10.866Z,99.90
2018-03-14T18:17:38.355Z,99.90
2018-03-14T18:20:05.818Z,99.90
2018-03-14T18:22:33.333Z,99.90
2018-03-14T18:25:00.902Z,99.90
2018-03-14T18:27:29.012Z,99.90
2018-03-14T18:29:56.487Z,99.90
2018-03-14T18:32:24.018Z,99.90
2018-03-14T18:34:51.478Z,99.90
2018-03-14T18:37:19.041Z,99.90
2018-03-14T18:39:46.500Z,99.90
2018-03-14T18:42:14.045Z,99.90
2018-03-14T18:44:41.568Z,99.90
2018-03-14T18:47:09.016Z,99.90
2018-03-14T18:49:37.736Z,99.90
2018-03-14T18:52:05.494Z,99.90
2018-03-14T18:54:32.957Z,99.90
2018-03-14T18:57:02.126Z,99.90
2018-03-14T18:59:29.607Z,99.90
2018-03-14T19:01:57.069Z,99.90
2018-03-14T19:04:24.559Z,99.90
2018-03-14T19:06:52.001Z,99.90
2018-03-14T19:09:19.536Z,99.90
2018-03-14T19:11:46.996Z,99.90
2018-03-14T19:14:14.950Z,99.90
2018-03-14T19:16:42.428Z,99.90
2018-03-14T19:19:09.954Z,99.90
2018-03-14T19:21:37.952Z,99.90
2018-03-14T19:24:05.434Z,99.90
2018-03-14T19:26:32.987Z,99.90
2018-03-14T19:29:01.360Z,99.90
2018-03-14T19:31:30.333Z,99.90
2018-03-14T19:33:57.863Z,99.90
2018-03-14T19:36:26.081Z,99.90
2018-03-14T19:38:58.462Z,99.90
2018-03-14T19:41:25.982Z,99.90
2018-03-14T19:43:55.178Z,99.90
2018-03-14T19:46:22.742Z,99.90
2018-03-14T19:48:50.369Z,99.90
2018-03-14T19:51:17.900Z,99.90
2018-03-14T19:53:45.432Z,99.90
2018-03-14T19:56:14.648Z,99.90
2018-03-14T19:58:42.112Z,99.90
2018-03-14T20:01:09.706Z,99.90
2018-03-14T20:03:37.311Z,99.90
2018-03-14T20:06:04.791Z,99.90
2018-03-14T20:08:33.252Z,99.90
2018-03-14T20:11:01.594Z,99.90
2018-03-14T20:13:29.780Z,99.90
2018-03-14T20:15:59.091Z,99.90
2018-03-14T20:18:26.562Z,99.90
2018-03-14T20:20:55.602Z,99.90
2018-03-14T20:23:23.934Z,99.90
2018-03-14T20:25:51.439Z,99.90
2018-03-14T20:28:18.922Z,99.90
2018-03-14T20:30:48.589Z,99.90
2018-03-14T20:33:16.142Z,99.90
2018-03-14T20:35:43.657Z,99.90
2018-03-14T20:38:12.883Z,99.90
2018-03-14T20:40:44.813Z,99.90
2018-03-14T20:43:12.596Z,99.90
2018-03-14T20:45:40.147Z,99.90
2018-03-14T20:48:07.616Z,99.90
2018-03-14T20:50:35.276Z,99.90
2018-03-14T20:53:03.894Z,99.90
2018-03-14T20:55:35.605Z,99.90
2018-03-14T20:58:03.059Z,99.90
2018-03-14T21:00:33.761Z,99.90
2018-03-14T21:03:02.016Z,99.90
2018-03-14T21:05:30.112Z,99.90
2018-03-14T21:07:58.591Z,99.90
2018-03-14T21:10:30.658Z,99.90
2018-03-14T21:12:59.860Z,99.90
2018-03-14T21:15:28.042Z,99.90
2018-03-14T21:17:55.501Z,99.90
2018-03-14T21:20:23.666Z,99.90
2018-03-14T21:22:54.156Z,99.90
2018-03-14T21:25:25.016Z,99.90
2018-03-14T21:27:56.891Z,99.90
2018-03-14T21:30:24.380Z,99.90
2018-03-14T21:32:51.931Z,99.90
2018-03-14T21:35:19.434Z,99.90
2018-03-14T21:37:48.607Z,99.90
2018-03-14T21:40:16.149Z,99.90
2018-03-14T21:42:47.417Z,99.90
2018-03-14T21:45:15.091Z,99.90
2018-03-14T21:47:42.871Z,99.90
2018-03-14T21:50:11.100Z,99.90
2018-03-14T21:52:38.556Z,99.90
2018-03-14T21:55:06.109Z,99.90
2018-03-14T21:57:33.571Z,99.90
2018-03-14T22:00:01.745Z,99.90
2018-03-14T22:02:29.193Z,99.90
2018-03-14T22:04:56.650Z,99.90
2018-03-14T22:07:24.136Z,99.90
2018-03-14T22:09:52.590Z,99.90
2018-03-14T22:12:23.405Z,99.90
2018-03-14T22:14:52.049Z,99.90
2018-03-14T22:17:20.444Z,99.90
2018-03-14T22:19:48.816Z,99.90
2018-03-14T22:22:16.357Z,99.90
2018-03-14T22:24:44.501Z,99.90
2018-03-14T22:27:11.996Z,99.90
2018-03-14T22:29:39.453Z,99.90
2018-03-14T22:32:06.926Z,99.90
2018-03-14T22:34:35.978Z,99.90
2018-03-14T22:37:03.452Z,99.90
2018-03-14T22:39:30.927Z,99.90
2018-03-14T22:42:01.153Z,99.90
2018-03-14T22:44:32.669Z,99.90
2018-03-14T22:47:01.600Z,99.90
2018-03-14T22:49:29.037Z,99.90
2018-03-14T22:51:56.484Z,99.90
2018-03-14T22:54:23.969Z,99.90
2018-03-14T22:56:51.459Z,99.90
2018-03-14T22:59:24.174Z,99.90
2018-03-14T23:01:51.668Z,99.90
2018-03-14T23:04:19.716Z,99.90
2018-03-14T23:06:47.256Z,99.90
2018-03-14T23:09:15.534Z,99.90
2018-03-14T23:11:43.054Z,99.90
2018-03-14T23:14:16.168Z,99.90
2018-03-14T23:16:43.662Z,99.90
2018-03-14T23:19:11.655Z,99.90
2018-03-14T23:21:39.182Z,99.90
2018-03-14T23:24:07.548Z,99.90
2018-03-14T23:26:37.146Z,99.90
2018-03-14T23:29:08.101Z,99.90
2018-03-14T23:31:36.073Z,99.90
2018-03-14T23:34:03.563Z,99.90
2018-03-14T23:36:31.019Z,99.90
2018-03-14T23:38:59.489Z,99.90
2018-03-14T23:41:26.973Z,99.90
2018-03-14T23:43:58.017Z,99.90
2018-03-14T23:46:25.473Z,99.90
2018-03-14T23:48:52.964Z,99.90
2018-03-14T23:51:20.438Z,99.90
2018-03-14T23:53:47.917Z,99.90
2018-03-14T23:56:15.409Z,99.90
2018-03-14T23:58:44.559Z,99.90
